Metar Aviation Weather Data EGNJ

4°C Temp
3°C Dewpoint
% Humidity
Temperature
29 KM/H
18 MPH
16 KTS
190°
Due South

Wind Speed
Overcast
Conditions
Pressure 1008.92 (hPa) - 29.79 (in)
Visibility 3.7 (mi) - 6 (km)

Current Conditions
EGNJ
Metar :EGNJ 262020Z AUTO 19016KT 6000 OVC003/// 04/03 Q1009 RERA
Tue 26th January 21:20 pm

  Metar Aviation API Data Provided by https://www.checkwx.com/ PHP scripts by weather34.com ©2021